• Join FlightAware (Why Join?)
  • Login
  • US Flag 
05:19AM EST


 

Airport Tracker/Info


-or-


 

Live Flight TrackerFlight Track Log ✈ AFL150 ✈ 21-Mar-2014 ✈ UUEE / SVO - MUHA / HAV

Flight Track Log - Related Links

Times and Time Zones

All times are in EDT time to prevent confusion due to time zone crossing. See the AFL150 flight status page for this flight to view local times or setup timezone preferences in your user account.

Time Position Orientation Groundspeed Altitude Reporting Facility
EDT Latitude Longitude Course Direction KTS MPH feet Rate Location/Type
05:40AM 56.0717 36.9552 307° West  Level Estimated
05:41AM 56.1428 36.7822 306° West  Level Estimated
05:42AM 56.2136 36.6086 306° West  Level Estimated
05:43AM 56.2841 36.4344 306° West  Level Estimated
05:44AM 56.3545 36.2595 306° West  Level Estimated
05:45AM 56.4245 36.0840 306° West  Level Estimated
05:46AM 56.4943 35.9078 306° West  Level Estimated
05:47AM 56.5639 35.7310 306° West  Level Estimated
05:48AM 56.6332 35.5535 305° West  Level Estimated
05:49AM 56.7023 35.3754 305° West  Level Estimated
05:50AM 56.7711 35.1966 305° West  Level Estimated
05:51AM 56.8396 35.0172 305° West  Level Estimated
05:52AM 56.9079 34.8371 305° West  Level Estimated
05:53AM 56.9760 34.6563 305° West  Level Estimated
05:54AM 57.0437 34.4749 305° West  Level Estimated
05:55AM 57.1112 34.2929 304° West  Level Estimated
05:56AM 57.1785 34.1101 304° West  Level Estimated
05:57AM 57.2455 33.9267 304° West  Level Estimated
05:58AM 57.3122 33.7427 304° West  Level Estimated
05:59AM 57.3786 33.5579 304° West  Level Estimated
06:00AM 57.4448 33.3725 304° West  Level Estimated
06:01AM 57.5107 33.1865 303° West  Level Estimated
06:02AM 57.5763 32.9997 303° West  Level Estimated
06:03AM 57.6416 32.8123 303° West  Level Estimated
06:04AM 57.7067 32.6242 303° West  Level Estimated
06:05AM 57.7715 32.4354 303° West  Level Estimated
06:06AM 57.8360 32.2460 303° West  Level Estimated
06:07AM 57.9002 32.0559 302° West  Level Estimated
06:08AM 57.9641 31.8651 302° West  Level Estimated
06:09AM 58.0278 31.6736 302° West  Level Estimated
06:10AM 58.0911 31.4814 302° West  Level Estimated
06:11AM 58.1542 31.2886 302° West  Level Estimated
06:12AM 58.2170 31.0951 302° West  Level Estimated
06:13AM 58.2795 30.9008 302° West  Level Estimated
06:14AM 58.3417 30.7059 301° West  Level Estimated
06:15AM 58.4036 30.5103 301° West  Level Estimated
06:16AM 58.4651 30.3141 301° West  Level Estimated
06:17AM 58.5264 30.1171 301° West  Level Estimated
06:18AM 58.5874 29.9195 301° West  Level Estimated
06:19AM 58.6481 29.7211 301° West  Level Estimated
06:20AM 58.7085 29.5221 300° West  Level Estimated
06:21AM 58.7686 29.3224 300° West  Level Estimated
06:22AM 58.8283 29.1220 300° West  Level Estimated
06:23AM 58.8878 28.9209 300° West  Level Estimated
06:24AM 58.9469 28.7191 300° West  Level Estimated
06:25AM 59.0057 28.5167 299° West  Level Estimated
06:26AM 59.0642 28.3135 299° West  Level Estimated
06:27AM 59.1224 28.1096 299° West  Level Estimated
06:28AM 59.1803 27.9051 299° West  Level Estimated
06:29AM 59.2378 27.6999 299° West  Level Estimated
06:30AM 59.2951 27.4939 299° West  Level Estimated
06:31AM 59.3519 27.2873 298° West  Level Estimated
06:32AM 59.4085 27.0800 298° West  Level Estimated
06:33AM 59.4647 26.8720 298° West  Level Estimated
06:34AM 59.5206 26.6633 298° West  Level Estimated
06:35AM 59.5762 26.4539 298° West  Level Estimated
06:36AM 59.6314 26.2438 298° West  Level Estimated
06:37AM 59.6863 26.0331 297° West  Level Estimated
06:38AM 59.7409 25.8216 297° West  Level Estimated
06:39AM 59.7951 25.6094 297° West  Level Estimated
06:40AM 59.8490 25.3966 297° West  Level Estimated
06:41AM 59.9025 25.1831 297° West  Level Estimated
06:42AM 59.9557 24.9689 296° West  Level Estimated
06:43AM 60.0085 24.7540 296° West  Level Estimated
06:44AM 60.0610 24.5384 296° West  Level Estimated
06:45AM 60.1132 24.3221 296° West  Level Estimated
06:46AM 60.1649 24.1052 296° West  Level Estimated
06:47AM 60.2164 23.8875 296° West  Level Estimated
06:48AM 60.2674 23.6692 295° West  Level Estimated
06:49AM 60.3181 23.4502 295° West  Level Estimated
06:50AM 60.3685 23.2305 295° West  Level Estimated
06:51AM 60.4185 23.0102 295° West  Level Estimated
06:52AM 60.4681 22.7892 295° West  Level Estimated
06:53AM 60.5173 22.5674 294° West  Level Estimated
06:54AM 60.5662 22.3451 294° West  Level Estimated
06:55AM 60.6147 22.1220 294° West  Level Estimated
06:56AM 60.6629 21.8983 294° West  Level Estimated
06:57AM 60.7106 21.6739 294° West  Level Estimated
06:58AM 60.7580 21.4489 293° West  Level Estimated
06:59AM 60.8050 21.2232 293° West  Level Estimated
07:00AM 60.8517 20.9968 293° West  Level Estimated
07:01AM 60.8979 20.7698 293° West  Level Estimated
07:02AM 60.9438 20.5421 293° West  Level Estimated
07:03AM 60.9893 20.3137 292° West  Level Estimated
07:04AM 61.0344 20.0847 292° West  Level Estimated
07:05AM 61.0791 19.8551 292° West  Level Estimated
07:06AM 61.1234 19.6248 292° West  Level Estimated
07:07AM 61.1673 19.3939 292° West  Level Estimated
07:08AM 61.2108 19.1623 291° West  Level Estimated
07:09AM 61.2540 18.9301 291° West  Level Estimated
07:10AM 61.2967 18.6972 291° West  Level Estimated
07:11AM 61.3390 18.4638 291° West  Level Estimated
07:12AM 61.3810 18.2296 291° West  Level Estimated
07:13AM 61.4225 17.9949 290° West  Level Estimated
07:14AM 61.4636 17.7595 290° West  Level Estimated
07:15AM 61.5043 17.5236 290° West  Level Estimated
07:16AM 61.5447 17.2870 290° West  Level Estimated
07:17AM 61.5846 17.0498 290° West  Level Estimated
07:18AM 61.6240 16.8120 289° West  Level Estimated
07:19AM 61.6631 16.5735 289° West  Level Estimated
07:20AM 61.7018 16.3345 289° West  Level Estimated
07:21AM 61.7400 16.0949 289° West  Level Estimated
07:22AM 61.7778 15.8547 289° West  Level Estimated
07:23AM 61.8152 15.6139 288° West  Level Estimated
07:24AM 61.8522 15.3725 288° West  Level Estimated
07:25AM 61.8888 15.1306 288° West  Level Estimated
07:26AM 61.9249 14.8880 288° West  Level Estimated
07:27AM 61.9606 14.6449 287° West  Level Estimated
07:28AM 61.9959 14.4012 287° West  Level Estimated
07:29AM 62.0307 14.1570 287° West  Level Estimated
07:30AM 62.0651 13.9122 287° West  Level Estimated
07:31AM 62.0991 13.6669 287° West  Level Estimated
07:32AM 62.1326 13.4210 286° West  Level Estimated
07:33AM 62.1657 13.1746 286° West  Level Estimated
07:34AM 62.1984 12.9276 286° West  Level Estimated
07:35AM 62.2306 12.6801 286° West  Level Estimated
07:36AM 62.2624 12.4321 285° West  Level Estimated
07:37AM 62.2938 12.1835 285° West  Level Estimated
07:38AM 62.3246 11.9345 285° West  Level Estimated
07:39AM 62.3551 11.6849 285° West  Level Estimated
07:40AM 62.3851 11.4348 285° West  Level Estimated
07:41AM 62.4146 11.1843 284° West  Level Estimated
07:42AM 62.4437 10.9332 284° West  Level Estimated
07:43AM 62.4724 10.6817 284° West  Level Estimated
07:44AM 62.5006 10.4297 284° West  Level Estimated
07:45AM 62.5283 10.1771 284° West  Level Estimated
07:46AM 62.5556 9.9242 283° West  Level Estimated
07:47AM 62.5825 9.6708 283° West  Level Estimated
07:48AM 62.6088 9.4169 283° West  Level Estimated
07:49AM 62.6347 9.1626 283° West  Level Estimated
07:50AM 62.6602 8.9078 282° West  Level Estimated
07:51AM 62.6852 8.6526 282° West  Level Estimated
07:52AM 62.7097 8.3970 282° West  Level Estimated
07:53AM 62.7337 8.1409 282° West  Level Estimated
07:54AM 62.7573 7.8845 281° West  Level Estimated
07:55AM 62.7804 7.6276 281° West  Level Estimated
07:56AM 62.8031 7.3703 281° West  Level Estimated
07:57AM 62.8253 7.1127 281° West  Level Estimated
07:58AM 62.8470 6.8546 281° West  Level Estimated
07:59AM 62.8682 6.5962 280° West  Level Estimated
08:00AM 62.8890 6.3374 280° West  Level Estimated
08:01AM 62.9092 6.0783 280° West  Level Estimated
08:02AM 62.9291 5.8188 280° West  Level Estimated
08:03AM 62.9484 5.5589 279° West  Level Estimated
08:04AM 62.9673 5.2987 279° West  Level Estimated
08:05AM 62.9856 5.0382 279° West  Level Estimated
08:06AM 63.0035 4.7773 279° West  Level Estimated
08:07AM 63.0209 4.5162 278° West  Level Estimated
08:08AM 63.0379 4.2547 278° West  Level Estimated
08:09AM 63.0543 3.9929 278° West  Level Estimated
08:10AM 63.0703 3.7309 278° West  Level Estimated
08:11AM 63.0858 3.4685 278° West  Level Estimated
08:12AM 63.1008 3.2059 277° West  Level Estimated
08:13AM 63.1153 2.9430 277° West  Level Estimated
08:14AM 63.1293 2.6799 277° West  Level Estimated
08:15AM 63.1428 2.4165 277° West  Level Estimated
08:16AM 63.1559 2.1528 276° West  Level Estimated
08:17AM 63.1685 1.8889 276° West  Level Estimated
08:18AM 63.1805 1.6249 276° West  Level Estimated
08:19AM 63.1921 1.3605 276° West  Level Estimated
08:20AM 63.2032 1.0960 275° West  Level Estimated
08:21AM 63.2138 0.8313 275° West  Level Estimated
08:22AM 63.2239 0.5664 275° West  Level Estimated
08:23AM 63.2335 0.3013 275° West  Level Estimated
08:24AM 63.2426 0.0360 274° West  Level Estimated
08:25AM 63.2512 -0.2294 274° West  Level Estimated
08:26AM 63.2594 -0.4949 274° West  Level Estimated
08:27AM 63.2670 -0.7607 274° West  Level Estimated
08:28AM 63.2741 -1.0265 274° West  Level Estimated
08:29AM 63.2808 -1.2925 273° West  Level Estimated
08:30AM 63.2869 -1.5586 273° West  Level Estimated
08:31AM 63.2926 -1.8248 273° West  Level Estimated
08:32AM 63.2977 -2.0911 273° West  Level Estimated
08:33AM 63.3024 -2.3575 272° West  Level Estimated
08:34AM 63.3065 -2.6240 272° West  Level Estimated
08:35AM 63.3102 -2.8906 272° West  Level Estimated
08:36AM 63.3134 -3.1572 272° West  Level Estimated
08:37AM 63.3160 -3.4239 271° West  Level Estimated
08:38AM 63.3182 -3.6906 271° West  Level Estimated
08:39AM 63.3199 -3.9573 271° West  Level Estimated
08:40AM 63.3210 -4.2241 271° West  Level Estimated
08:41AM 63.3217 -4.4909 270° West  Level Estimated
08:42AM 63.3219 -4.7577 270° West  Level Estimated
08:43AM 63.3216 -5.0245 270° West  Level Estimated
08:44AM 63.3208 -5.2913 270° West  Level Estimated
08:45AM 63.3194 -5.5581 269° West  Level Estimated
08:46AM 63.3176 -5.8248 269° West  Level Estimated
08:47AM 63.3153 -6.0915 269° West  Level Estimated
08:48AM 63.3125 -6.3582 269° West  Level Estimated
08:49AM 63.3092 -6.6248 269° West  Level Estimated
08:50AM 63.3054 -6.8913 268° West  Level Estimated
08:51AM 63.3010 -7.1578 268° West  Level Estimated
08:52AM 63.2962 -7.4242 268° West  Level Estimated
08:53AM 63.2909 -7.6904 268° West  Level Estimated
08:54AM 63.2851 -7.9566 267° West  Level Estimated
08:55AM 63.2788 -8.2227 267° West  Level Estimated
08:56AM 63.2720 -8.4886 267° West  Level Estimated
08:57AM 63.2648 -8.7544 267° West  Level Estimated
08:58AM 63.2570 -9.0201 266° West  Level Estimated
08:59AM 63.2487 -9.2857 266° West  Level Estimated
09:00AM 63.2399 -9.5510 266° West  Level Estimated
09:01AM 63.2307 -9.8162 266° West  Level Estimated
09:02AM 63.2209 -10.0813 265° West  Level Estimated
09:03AM 63.2106 -10.3461 265° West  Level Estimated
09:04AM 63.1999 -10.6108 265° West  Level Estimated
09:05AM 63.1887 -10.8752 265° West  Level Estimated
09:06AM 63.1769 -11.1395 264° West  Level Estimated
09:07AM 63.1647 -11.4035 264° West  Level Estimated
09:08AM 63.1520 -11.6673 264° West  Level Estimated
09:09AM 63.1388 -11.9309 264° West  Level Estimated
09:10AM 63.1251 -12.1942 264° West  Level Estimated
09:11AM 63.1110 -12.4573 263° West  Level Estimated
09:12AM 63.0963 -12.7201 263° West  Level Estimated
09:13AM 63.0812 -12.9826 263° West  Level Estimated
09:14AM 63.0655 -13.2449 263° West  Level Estimated
09:15AM 63.0494 -13.5069 262° West  Level Estimated
09:16AM 63.0328 -13.7686 262° West  Level Estimated
09:17AM 63.0157 -14.0299 262° West  Level Estimated
09:18AM 62.9982 -14.2910 262° West  Level Estimated
09:19AM 62.9801 -14.5518 261° West  Level Estimated
09:20AM 62.9616 -14.8122 261° West  Level Estimated
09:21AM 62.9426 -15.0723 261° West  Level Estimated
09:22AM 62.9231 -15.3320 261° West  Level Estimated
09:23AM 62.9032 -15.5914 261° West  Level Estimated
09:24AM 62.8828 -15.8505 260° West  Level Estimated
09:25AM 62.8618 -16.1091 260° West  Level Estimated
09:26AM 62.8405 -16.3675 260° West  Level Estimated
09:27AM 62.8186 -16.6254 260° West  Level Estimated
09:28AM 62.7963 -16.8829 259° West  Level Estimated
09:29AM 62.7735 -17.1401 259° West  Level Estimated
09:30AM 62.7502 -17.3968 259° West  Level Estimated
09:31AM 62.7265 -17.6532 259° West  Level Estimated
09:32AM 62.7023 -17.9091 258° West  Level Estimated
09:33AM 62.6777 -18.1646 258° West  Level Estimated
09:34AM 62.6525 -18.4196 258° West  Level Estimated
09:35AM 62.6269 -18.6743 258° West  Level Estimated
09:36AM 62.6009 -18.9285 258° West  Level Estimated
09:37AM 62.5744 -19.1822 257° West  Level Estimated
09:38AM 62.5474 -19.4355 257° West  Level Estimated
09:39AM 62.5200 -19.6883 257° West  Level Estimated
09:40AM 62.4921 -19.9407 257° West  Level Estimated
09:41AM 62.4638 -20.1926 256° West  Level Estimated
09:42AM 62.4350 -20.4440 256° West  Level Estimated
09:43AM 62.4058 -20.6949 256° West  Level Estimated
09:44AM 62.3761 -20.9453 256° West  Level Estimated
09:45AM 62.3460 -21.1952 256° West  Level Estimated
09:46AM 62.3154 -21.4446 255° West  Level Estimated
09:47AM 62.2843 -21.6935 255° West  Level Estimated
09:48AM 62.2529 -21.9419 255° West  Level Estimated
09:49AM 62.2210 -22.1898 255° West  Level Estimated
09:50AM 62.1886 -22.4371 254° West  Level Estimated
09:51AM 62.1558 -22.6839 254° West  Level Estimated
09:52AM 62.1226 -22.9302 254° West  Level Estimated
09:53AM 62.0889 -23.1759 254° West  Level Estimated
09:54AM 62.0548 -23.4211 254° West  Level Estimated
09:55AM 62.0202 -23.6657 253° West  Level Estimated
09:56AM 61.9853 -23.9097 253° West  Level Estimated
09:57AM 61.9499 -24.1533 253° West  Level Estimated
09:58AM 61.9140 -24.3962 253° West  Level Estimated
09:59AM 61.8778 -24.6385 252° West  Level Estimated
10:00AM 61.8411 -24.8803 252° West  Level Estimated
10:01AM 61.8040 -25.1215 252° West  Level Estimated
10:02AM 61.7665 -25.3622 252° West  Level Estimated
10:03AM 61.7285 -25.6022 252° West  Level Estimated
10:04AM 61.6902 -25.8416 251° West  Level Estimated
10:05AM 61.6514 -26.0805 251° West  Level Estimated
10:06AM 61.6122 -26.3187 251° West  Level Estimated
10:07AM 61.5726 -26.5563 251° West  Level Estimated
10:08AM 61.5325 -26.7934 251° West  Level Estimated
10:09AM 61.4921 -27.0298 250° West  Level Estimated
10:10AM 61.4513 -27.2656 250° West  Level Estimated
10:11AM 61.4100 -27.5007 250° West  Level Estimated
10:12AM 61.3684 -27.7353 250° West  Level Estimated
10:13AM 61.3263 -27.9692 250° West  Level Estimated
10:14AM 61.2839 -28.2025 249° West  Level Estimated
10:15AM 61.2410 -28.4351 249° West  Level Estimated
10:16AM 61.1977 -28.6672 249° West  Level Estimated
10:17AM 61.1541 -28.8986 249° West  Level Estimated
10:18AM 61.1101 -29.1293 249° West  Level Estimated
10:19AM 61.0656 -29.3594 248° West  Level Estimated
10:20AM 61.0208 -29.5888 248° West  Level Estimated
10:21AM 60.9756 -29.8176 248° West  Level Estimated
10:22AM 60.9300 -30.0458 248° West  Level Estimated
10:23AM 60.8840 -30.2733 248° West  Level Estimated
10:24AM 60.8376 -30.5001 247° West  Level Estimated
10:25AM 60.7909 -30.7263 247° West  Level Estimated
10:26AM 60.7438 -30.9518 247° West  Level Estimated
10:27AM 60.6963 -31.1766 247° West  Level Estimated
10:28AM 60.6484 -31.4008 247° West  Level Estimated
10:29AM 60.6001 -31.6243 246° West  Level Estimated
10:30AM 60.5515 -31.8472 246° West  Level Estimated
10:31AM 60.5025 -32.0693 246° West  Level Estimated
10:32AM 60.4532 -32.2908 246° West  Level Estimated
10:33AM 60.4034 -32.5117 246° West  Level Estimated
10:34AM 60.3533 -32.7318 245° Southwest  Level Estimated
10:35AM 60.3029 -32.9513 245° Southwest  Level Estimated
10:36AM 60.2521 -33.1701 245° Southwest  Level Estimated
10:37AM 60.2009 -33.3882 245° Southwest  Level Estimated
10:38AM 60.1493 -33.6056 245° Southwest  Level Estimated
10:39AM 60.0975 -33.8224 244° Southwest  Level Estimated
10:40AM 60.0452 -34.0384 244° Southwest  Level Estimated
10:41AM 59.9926 -34.2538 244° Southwest  Level Estimated
10:42AM 59.9397 -34.4685 244° Southwest  Level Estimated
10:43AM 59.8864 -34.6825 244° Southwest  Level Estimated
10:44AM 59.8328 -34.8958 243° Southwest  Level Estimated
10:45AM 59.7788 -35.1085 243° Southwest  Level Estimated
10:46AM 59.7245 -35.3204 243° Southwest  Level Estimated
10:47AM 59.6698 -35.5316 243° Southwest  Level Estimated
10:48AM 59.6148 -35.7422 243° Southwest  Level Estimated
10:49AM 59.5595 -35.9521 243° Southwest  Level Estimated
10:50AM 59.5038 -36.1613 242° Southwest  Level Estimated
10:51AM 59.4478 -36.3698 242° Southwest  Level Estimated
10:52AM 59.3915 -36.5775 242° Southwest  Level Estimated
10:53AM 59.3348 -36.7846 242° Southwest  Level Estimated
10:54AM 59.2778 -36.9911 242° Southwest  Level Estimated
10:55AM 59.2205 -37.1968 242° Southwest  Level Estimated
10:56AM 59.1629 -37.4018 241° Southwest  Level Estimated
10:57AM 59.1049 -37.6062 241° Southwest  Level Estimated
10:58AM 59.0466 -37.8098 241° Southwest  Level Estimated
10:59AM 58.9880 -38.0128 241° Southwest  Level Estimated
11:00AM 58.9291 -38.2150 241° Southwest  Level Estimated
11:01AM 58.8699 -38.4166 240° Southwest  Level Estimated
11:02AM 58.8103 -38.6175 240° Southwest  Level Estimated
11:03AM 58.7505 -38.8177 240° Southwest  Level Estimated
11:04AM 58.6903 -39.0172 240° Southwest  Level Estimated
11:05AM 58.6298 -39.2160 240° Southwest  Level Estimated
11:06AM 58.5690 -39.4141 240° Southwest  Level Estimated
11:07AM 58.5080 -39.6116 239° Southwest  Level Estimated
11:08AM 58.4466 -39.8083 239° Southwest  Level Estimated
11:09AM 58.3849 -40.0044 239° Southwest  Level Estimated
11:10AM 58.3229 -40.1997 239° Southwest  Level Estimated
11:11AM 58.2607 -40.3944 239° Southwest  Level Estimated
11:12AM 58.1981 -40.5884 239° Southwest  Level Estimated
11:13AM 58.1352 -40.7818 238° Southwest  Level Estimated
11:14AM 58.0720 -40.9744 238° Southwest  Level Estimated
11:15AM 58.0086 -41.1664 238° Southwest  Level Estimated
11:16AM 57.9449 -41.3576 238° Southwest  Level Estimated
11:17AM 57.8809 -41.5482 238° Southwest  Level Estimated
11:18AM 57.8165 -41.7382 238° Southwest  Level Estimated
11:19AM 57.7520 -41.9274 237° Southwest  Level Estimated
11:20AM 57.6871 -42.1160 237° Southwest  Level Estimated
11:21AM 57.6219 -42.3038 237° Southwest  Level Estimated
11:22AM 57.5565 -42.4911 237° Southwest  Level Estimated
11:23AM 57.4908 -42.6776 237° Southwest  Level Estimated
11:24AM 57.4248 -42.8635 237° Southwest  Level Estimated
11:25AM 57.3586 -43.0487 237° Southwest  Level Estimated
11:26AM 57.2921 -43.2332 236° Southwest  Level Estimated
11:27AM 57.2253 -43.4170 236° Southwest  Level Estimated
11:28AM 57.1582 -43.6003 236° Southwest  Level Estimated
11:29AM 57.0909 -43.7828 236° Southwest  Level Estimated
11:30AM 57.0233 -43.9646 236° Southwest  Level Estimated
11:31AM 56.9555 -44.1459 236° Southwest  Level Estimated
11:32AM 56.8873 -44.3264 235° Southwest  Level Estimated
11:33AM 56.8190 -44.5063 235° Southwest  Level Estimated
11:34AM 56.7504 -44.6855 235° Southwest  Level Estimated
11:35AM 56.6815 -44.8641 235° Southwest  Level Estimated
11:36AM 56.6123 -45.0420 235° Southwest  Level Estimated
11:37AM 56.5429 -45.2193 235° Southwest  Level Estimated
11:38AM 56.4733 -45.3959 235° Southwest  Level Estimated
11:39AM 56.4034 -45.5719 234° Southwest  Level Estimated
11:40AM 56.3333 -45.7472 234° Southwest  Level Estimated
11:41AM 56.2629 -45.9219 234° Southwest  Level Estimated
11:42AM 56.1922 -46.0960 234° Southwest  Level Estimated
11:43AM 56.1214 -46.2694 234° Southwest  Level Estimated
11:44AM 56.0502 -46.4421 234° Southwest  Level Estimated
11:45AM 55.9789 -46.6143 234° Southwest  Level Estimated
11:46AM 55.9073 -46.7858 233° Southwest  Level Estimated
11:47AM 55.8354 -46.9566 233° Southwest  Level Estimated
11:48AM 55.7634 -47.1269 233° Southwest  Level Estimated
11:49AM 55.6911 -47.2964 233° Southwest  Level Estimated
11:50AM 55.6185 -47.4654 233° Southwest  Level Estimated
11:51AM 55.5458 -47.6338 233° Southwest  Level Estimated
11:52AM 55.4728 -47.8015 233° Southwest  Level Estimated
11:53AM 55.3995 -47.9686 232° Southwest  Level Estimated
11:54AM 55.3261 -48.1351 232° Southwest  Level Estimated
11:55AM 55.2524 -48.3009 232° Southwest  Level Estimated
11:56AM 55.1785 -48.4662 232° Southwest  Level Estimated
11:56AM 63.4167 -55.8000 231° Southwest 450 518 38,000  Level Gander Center
11:57AM 55.1044 -48.6308 232° Southwest  Level Estimated
11:57AM 63.3667 -56.0333 245° Southwest 440 506 38,000  Level Gander Center
11:58AM 55.0300 -48.7948 232° Southwest  Level Estimated
11:58AM 63.2833 -56.2667 232° Southwest 440 506 38,000  Level Gander Center
11:59AM 54.9555 -48.9582 232° Southwest  Level Estimated
11:59AM 63.2000 -56.4667 227° Southwest 440 506 38,000  Level Gander Center
12:00PM 54.8807 -49.1209 231° Southwest  Level Estimated
12:00PM 63.1500 -56.7000 245° Southwest 440 506 38,000  Level Gander Center
12:01PM 54.8058 -49.2830 231° Southwest  Level Estimated
12:01PM 63.0667 -56.9333 232° Southwest 450 518 38,000  Level Gander Center
12:02PM 63.0000 -57.1667 238° Southwest 450 518 38,000  Level Gander Center
12:03PM 62.9167 -57.3500 225° Southwest 450 518 38,000  Level Gander Center
12:04PM 62.8500 -57.5167 229° Southwest 420 483 38,000  Level Montreal Center
12:05PM 62.7833 -57.8000 243° Southwest 440 506 38,000  Level Gander Center
12:06PM 62.7000 -58.0000 228° Southwest 440 506 38,000  Level Gander Center
12:07PM 62.6333 -58.2167 236° Southwest 440 506 38,000  Level Gander Center
12:08PM 62.5667 -58.4000 232° Southwest 440 506 38,000  Level Gander Center
12:09PM 62.4833 -58.6333 232° Southwest 440 506 38,000  Level Gander Center
12:10PM 62.4000 -58.8500 230° Southwest 440 506 38,000  Level Gander Center
12:11PM 62.3333 -59.0333 232° Southwest 440 506 38,000  Level Gander Center
12:12PM 62.2667 -59.2500 237° Southwest 440 506 38,000  Level Gander Center
12:13PM 62.1833 -59.4667 231° Southwest 440 506 38,000  Level Gander Center
12:14PM 62.1000 -59.6500 226° Southwest 440 506 38,000  Level Gander Center
12:15PM 62.0333 -59.8667 237° Southwest 440 506 38,000  Level Gander Center
12:16PM 61.9500 -60.0500 226° Southwest 440 506 38,000  Level Gander Center
12:17PM 61.8667 -60.2667 231° Southwest 450 518 38,000  Level Gander Center
12:18PM 61.8000 -60.4667 235° Southwest 450 518 38,000  Level Gander Center
12:19PM 61.7167 -60.6833 231° Southwest 450 518 38,000  Level Gander Center
12:20PM 61.6500 -60.8667 233° Southwest 450 518 38,000  Level Gander Center
12:21PM 61.5667 -61.0667 229° Southwest 450 518 38,000  Level Gander Center
12:22PM 61.4833 -61.2833 231° Southwest 450 518 38,000  Level Gander Center
12:23PM 61.4000 -61.4833 229° Southwest 450 518 38,000  Level Gander Center
12:24PM 61.3167 -61.6333 221° Southwest 450 518 38,000  Level Montreal Center
12:25PM 61.2333 -61.8000 224° Southwest 450 518 38,000  Level Montreal Center
12:26PM 61.1500 -62.0167 231° Southwest 450 518 38,000  Level Montreal Center
12:27PM 61.0833 -62.2500 239° Southwest 460 529 38,000  Level Gander Center
12:28PM 61.0000 -62.4500 229° Southwest 460 529 38,000  Level Gander Center
12:29PM 60.9000 -62.6500 224° Southwest 450 518 38,000  Level Gander Center
12:31PM 60.7333 -63.0833 232° Southwest 460 529 38,000  Level Gander Center
12:32PM 60.6500 -63.2500 224° Southwest 450 518 38,000  Level Gander Center
12:33PM 60.5667 -63.4500 230° Southwest 450 518 38,000  Level Gander Center
12:34PM 60.4833 -63.6500 230° Southwest 450 518 38,000  Level Gander Center
12:35PM 60.4167 -63.8333 234° Southwest 450 518 38,000  Level Gander Center
12:36PM 60.3000 -64.0333 220° Southwest 450 518 38,000  Level Gander Center
12:37PM 60.2333 -64.2000 231° Southwest 450 518 38,000  Level Gander Center
12:38PM 60.1500 -64.3833 228° Southwest 450 518 38,000  Level Gander Center
12:39PM 60.0667 -64.5833 230° Southwest 450 518 38,000  Level Gander Center
12:40PM 59.9667 -64.7333 217° Southwest 450 518 38,000  Level Gander Center
12:41PM 59.8833 -64.9333 230° Southwest 450 518 38,000  Level Gander Center
12:42PM 59.8167 -65.1167 234° Southwest 440 506 38,000  Level Gander Center
12:43PM 59.7333 -65.2833 225° Southwest 450 518 38,000  Level Gander Center
12:44PM 59.6333 -65.4667 223° Southwest 450 518 38,000  Level Gander Center
12:45PM 59.5500 -65.6500 228° Southwest 450 518 38,000  Level Gander Center
12:46PM 59.4833 -65.8000 229° Southwest 450 518 38,000  Level Gander Center
12:47PM 59.3833 -65.9833 223° Southwest 450 518 38,000  Level Gander Center
12:48PM 59.3000 -66.1833 231° Southwest 450 518 38,000  Level Gander Center
12:49PM 59.2000 -66.3500 221° Southwest 450 518 38,000  Level Gander Center
12:50PM 59.1167 -66.5000 223° Southwest 450 518 38,000  Level Gander Center
12:51PM 59.0333 -66.6833 229° Southwest 450 518 38,000  Level Gander Center
12:52PM 58.9333 -66.8667 223° Southwest 450 518 38,000  Level Gander Center
12:53PM 58.8667 -67.0167 229° Southwest 450 518 38,000  Level Gander Center
12:54PM 58.7667 -67.2000 224° Southwest 450 518 38,000  Level Gander Center
12:55PM 58.6833 -67.3833 229° Southwest 450 518 38,000  Level Gander Center
12:56PM 58.5833 -67.5500 221° Southwest 450 518 38,000  Level Gander Center
12:57PM 58.5000 -67.7000 223° Southwest 450 518 38,000  Level Gander Center
12:58PM 58.4000 -67.8667 221° Southwest 450 518 38,000  Level Gander Center
12:59PM 58.3167 -68.0500 229° Southwest 450 518 38,000  Level Gander Center
01:00PM 58.2333 -68.2000 223° Southwest 460 529 38,000  Level Gander Center
01:01PM 58.1500 -68.4000 232° Southwest 460 529 38,000  Level Gander Center
01:02PM 58.0333 -68.5000 204° Southwest 410 472 38,000  Level Gander Center
01:03PM 57.9500 -68.6500 224° Southwest 460 529 38,000  Level Gander Center
01:04PM 57.8333 -68.8167 217° Southwest 460 529 38,000  Level Gander Center
01:05PM 57.7500 -68.9500 221° Southwest 450 518 38,000  Level Gander Center
01:06PM 57.6333 -69.0833 211° Southwest 460 529 38,000  Level Gander Center
01:07PM 57.5333 -69.2167 216° Southwest 460 529 38,000  Level Gander Center
01:08PM 57.4167 -69.3500 212° Southwest 450 518 38,000  Level Gander Center
01:09PM 57.3333 -69.4833 221° Southwest 460 529 38,000  Level Gander Center
01:10PM 57.2167 -69.6167 212° Southwest 460 529 38,000  Level Gander Center
01:11PM 57.1333 -69.7500 221° Southwest 460 529 38,000  Level Gander Center
01:12PM 57.0167 -69.9167 218° Southwest 460 529 38,000  Level Gander Center
01:13PM 56.9000 -70.0333 209° Southwest 460 529 38,000  Level Gander Center
01:14PM 56.8167 -70.1667 221° Southwest 460 529 38,000  Level Gander Center
01:15PM 56.7000 -70.3000 212° Southwest 460 529 38,000  Level Gander Center
01:16PM 56.6167 -70.4333 221° Southwest 460 529 38,000  Level Gander Center
01:17PM 56.5000 -70.5500 209° Southwest 460 529 38,000  Level Gander Center
01:18PM 56.3833 -70.6833 212° Southwest 460 529 38,000  Level Gander Center
01:19PM 56.2833 -70.8000 213° Southwest 460 529 38,000  Level Gander Center
01:20PM 56.1833 -70.9333 217° Southwest 460 529 38,000  Level Gander Center
01:21PM 56.0833 -71.0500 213° Southwest 460 529 38,000  Level Gander Center
01:22PM 55.9667 -71.2167 219° Southwest 460 529 38,000  Level Gander Center
01:23PM 55.8500 -71.3333 209° Southwest 460 529 38,000  Level Gander Center
01:24PM 55.7500 -71.4500 213° Southwest 460 529 38,000  Level Gander Center
01:25PM 55.6500 -71.5833 217° Southwest 460 529 38,000  Level Gander Center
01:26PM 55.5333 -71.7000 210° Southwest 460 529 38,000  Level Gander Center
01:27PM 55.4333 -71.8167 214° Southwest 460 529 38,000  Level Gander Center
01:28PM 55.3333 -71.9333 214° Southwest 460 529 38,000  Level Gander Center
01:29PM 55.2167 -72.0833 216° Southwest 460 529 38,000  Level Gander Center
01:30PM 55.1333 -72.1333 199° South 460 529 38,000  Level Montreal Center
01:31PM 55.0167 -72.2667 213° Southwest 460 529 38,000  Level Montreal Center
01:32PM 54.9167 -72.3833 214° Southwest 460 529 38,000  Level Montreal Center
01:33PM 54.8000 -72.5167 213° Southwest 460 529 38,000  Level Montreal Center
01:34PM 54.7000 -72.6167 210° Southwest 460 529 38,000  Level Montreal Center
01:35PM 54.5833 -72.7333 210° Southwest 460 529 38,000  Level Montreal Center
01:36PM 54.4833 -72.8667 218° Southwest 460 529 38,000  Level Montreal Center
01:37PM 54.3667 -72.9833 210° Southwest 460 529 38,000  Level Montreal Center
01:38PM 54.2667 -73.1167 218° Southwest 460 529 38,000  Level Montreal Center
01:39PM 54.1500 -73.2333 210° Southwest 460 529 38,000  Level Montreal Center
01:40PM 54.0500 -73.3167 206° Southwest 460 529 38,000  Level Montreal Center
01:41PM 53.9333 -73.4500 214° Southwest 460 529 38,000  Level Montreal Center
01:42PM 53.8333 -73.5667 215° Southwest 460 529 38,000  Level Montreal Center
01:43PM 53.7167 -73.6833 211° Southwest 460 529 38,000  Level Montreal Center
01:44PM 53.6000 -73.7833 207° Southwest 460 529 38,000  Level Montreal Center
01:45PM 53.4833 -73.8667 203° Southwest 460 529 38,000  Level Montreal Center
01:46PM 53.3667 -73.9667 207° Southwest 460 529 38,000  Level Montreal Center
01:47PM 53.2667 -74.0833 215° Southwest 460 529 38,000  Level Montreal Center
01:48PM 53.1333 -74.1667 201° Southwest 460 529 38,000  Level Montreal Center
01:49PM 53.0167 -74.2500 203° Southwest 460 529 38,000  Level Montreal Center
01:50PM 52.9167 -74.3667 215° Southwest 460 529 38,000  Level Montreal Center
01:51PM 52.8000 -74.4667 207° Southwest 460 529 38,000  Level Montreal Center
01:52PM 52.6833 -74.5500 203° Southwest 460 529 38,000  Level Montreal Center
01:53PM 52.5500 -74.6333 201° Southwest 460 529 38,000  Level Montreal Center
01:54PM 52.4500 -74.7167 207° Southwest 460 529 38,000  Level Montreal Center
01:55PM 52.3333 -74.8333 211° Southwest 460 529 38,000  Level Montreal Center
01:56PM 52.2167 -74.9167 204° Southwest 460 529 38,000  Level Montreal Center
01:57PM 52.1000 -75.0000 204° Southwest 460 529 38,000  Level Montreal Center
01:58PM 51.9833 -75.0833 204° Southwest 470 541 38,000  Level Montreal Center
01:59PM 51.8667 -75.2000 212° Southwest 460 529 38,000  Level Montreal Center
02:00PM 51.7500 -75.2833 204° Southwest 460 529 38,000  Level Montreal Center
02:01PM 51.6333 -75.3667 204° Southwest 460 529 38,000  Level Montreal Center
02:02PM 51.5000 -75.4833 209° Southwest 460 529 38,000  Level Montreal Center
02:03PM 51.4000 -75.5667 207° Southwest 460 529 38,000  Level Montreal Center
02:04PM 51.2667 -75.6500 201° Southwest 460 529 38,000  Level Montreal Center
02:05PM 51.1667 -75.7167 203° Southwest 460 529 38,000  Level Montreal Center
02:06PM 51.0333 -75.8333 209° Southwest 470 541 38,000  Level Montreal Center
02:07PM 50.9333 -75.9167 208° Southwest 460 529 38,000  Level Montreal Center
02:08PM 50.8000 -76.0000 202° Southwest 460 529 38,000  Level Montreal Center
02:09PM 50.7000 -76.0667 203° Southwest 470 541 38,000  Level Montreal Center
02:10PM 50.5833 -76.1500 204° Southwest 460 529 38,000  Level Montreal Center
02:11PM 50.4500 -76.2500 206° Southwest 470 541 38,000  Level Montreal Center
02:12PM 50.3500 -76.3333 208° Southwest 470 541 38,000  Level Montreal Center
02:13PM 50.2167 -76.4167 202° Southwest 470 541 38,000  Level Montreal Center
02:14PM 50.1000 -76.5167 209° Southwest 470 541 38,000  Level Montreal Center
02:15PM 49.9667 -76.6000 202° Southwest 470 541 38,000  Level Montreal Center
02:16PM 49.8500 -76.6667 200° South 470 541 38,000  Level Montreal Center
02:17PM 49.7333 -76.7667 209° Southwest 460 529 38,000  Level Montreal Center
02:18PM 49.6167 -76.8500 205° Southwest 470 541 38,000  Level Montreal Center
02:19PM 49.5000 -76.9167 200° South 450 518 38,000  Level Montreal Center
02:20PM 49.3833 -77.0000 205° Southwest 490 564 38,000  Level Montreal Center
02:21PM 49.2667 -77.1000 209° Southwest 460 529 38,000  Level Montreal Center
02:22PM 49.1500 -77.1667 200° South 460 529 38,000  Level Montreal Center
02:23PM 49.0333 -77.2500 205° Southwest 470 541 38,000  Level Montreal Center
02:24PM 48.9000 -77.3167 198° South 470 541 38,000  Level Montreal Center
02:25PM 48.7833 -77.4167 209° Southwest 470 541 38,000  Level Montreal Center
02:26PM 48.6667 -77.5000 205° Southwest 470 541 38,000  Level Montreal Center
02:27PM 48.5500 -77.5667 201° Southwest 470 541 38,000  Level Montreal Center
02:28PM 48.4333 -77.6667 210° Southwest 470 541 38,000  Level Montreal Center
02:29PM 48.3167 -77.7333 201° Southwest 470 541 38,000  Level Montreal Center
02:30PM 48.1833 -77.8000 198° South 460 529 38,000  Level Montreal Center
02:31PM 48.0833 -77.8833 209° Southwest 460 529 38,000  Level Montreal Center
02:32PM 47.9500 -77.9500 199° South 470 541 38,000  Level Montreal Center
02:33PM 47.8167 -78.0167 199° South 470 541 38,000  Level Montreal Center
02:34PM 47.7000 -78.0833 201° Southwest 470 541 38,000  Level Montreal Center
02:35PM 47.5833 -78.1500 201° Southwest 470 541 38,000  Level Montreal Center
02:36PM 47.4667 -78.2333 206° Southwest 470 541 38,000  Level Montreal Center
02:37PM 47.3333 -78.3167 203° Southwest 460 529 38,000  Level Montreal Center
02:38PM 47.2167 -78.3667 196° South 460 529 38,000  Level Montreal Center
02:39PM 47.1000 -78.4333 201° Southwest 460 529 38,000  Level Montreal Center
02:41PM 46.8833 -78.5333 198° South 460 529 38,000  Level Toronto Center
02:42PM 46.7667 -78.6167 206° Southwest 460 529 38,000  Level Toronto Center
02:47PM 46.0478 -79.0220 201° Southwest 469 540 38,000  Level FlightAware ADS-B (CYYZ)
02:48PM 45.9878 -79.0544 201° Southwest 469 540 38,000  Level FlightAware ADS-B (CYYZ)
02:48PM 45.9641 -79.0672 201° Southwest 469 540 38,000  Level FlightAware ADS-B (CYYZ)
02:49PM 45.8646 -79.1207 201° Southwest 470 541 38,000  Level FlightAware ADS-B (CYYZ)
02:49PM 45.8071 -79.1515 201° Southwest 469 540 38,000  Level FlightAware ADS-B (CYYZ)
02:50PM 45.7430 -79.1858 201° Southwest 470 541 38,000  Level FlightAware ADS-B (CYYZ)
02:50PM 45.6840 -79.2173 201° Southwest 471 542 38,000  Level FlightAware ADS-B (CYYZ)
02:51PM 45.6235 -79.2497 201° Southwest 472 543 38,000  Level FlightAware ADS-B (CYYZ)
02:51PM 45.5639 -79.2814 201° Southwest 473 544 38,000  Level FlightAware ADS-B (CYYZ)
02:52PM 45.5017 -79.3143 201° Southwest 473 544 38,000  Level FlightAware ADS-B (CYYZ)
02:52PM 45.4376 -79.3483 201° Southwest 473 544 38,000  Level FlightAware ADS-B (CYYZ)
02:53PM 45.3786 -79.3794 201° Southwest 474 545 38,000  Level FlightAware ADS-B (CYYZ)
02:53PM 45.3143 -79.4132 201° Southwest 474 545 38,000  Level FlightAware ADS-B (CYYZ)
02:54PM 45.2530 -79.4454 201° Southwest 474 545 38,000  Level FlightAware ADS-B (CYYZ)
02:54PM 45.2079 -79.4691 201° Southwest 474 545 38,000  Level FlightAware ADS-B (CYYZ)
02:55PM 45.1323 -79.5087 201° Southwest 472 543 38,000  Level FlightAware ADS-B (CYYZ)
02:55PM 45.1019 -79.5245 201° Southwest 471 542 38,000  Level FlightAware ADS-B (CYYZ)
02:56PM 45.0176 -79.5684 201° Southwest 471 542 38,000  Level FlightAware ADS-B (CYYZ)
02:56PM 45.0018 -79.5766 201° Southwest 470 541 38,000  Level FlightAware ADS-B (CYYZ)
02:57PM 44.8478 -79.6565 201° Southwest 469 540 38,000  Level FlightAware ADS-B (CYYZ)
02:58PM 44.7147 -79.7252 201° Southwest 470 541 38,000  Level FlightAware ADS-B (CYYZ)
02:59PM 44.6709 -79.7477 200° South 468 539 38,000  Level FlightAware ADS-B (CYKF)
02:59PM 44.6420 -79.7626 201° Southwest 467 537 38,000  Level FlightAware ADS-B (CYYZ)
03:00PM 44.5718 -79.8050 207° Southwest 459 528 38,000  Level FlightAware ADS-B (CYYZ)
03:00PM 44.4745 -79.8888 214° Southwest 452 520 38,000  Level FlightAware ADS-B (CYYZ)
03:01PM 44.4237 -79.9357 214° Southwest 453 521 38,000  Level FlightAware ADS-B (CYYZ)
03:01PM 44.3692 -79.9852 213° Southwest 454 522 38,000  Level FlightAware ADS-B (CYYZ)
03:02PM 44.3165 -80.0324 213° Southwest 456 525 38,000  Level FlightAware ADS-B (CYYZ)
03:02PM 44.2643 -80.0792 213° Southwest 459 528 38,000  Level FlightAware ADS-B (CYYZ)
03:03PM 44.2510 -80.0911 213° Southwest 461 531 38,000  Level FlightAware ADS-B (CYKF)
03:03PM 44.2097 -80.1279 213° Southwest 461 531 38,000  Level FlightAware ADS-B (CYYZ)
03:03PM 44.1561 -80.1757 213° Southwest 462 532 38,000  Level FlightAware ADS-B (CYYZ)
03:04PM 44.1194 -80.2082 213° Southwest 459 528 38,000  Level FlightAware ADS-B (CYKF)
03:04PM 44.0847 -80.2389 213° Southwest 452 520 38,000  Level FlightAware ADS-B (CYYZ)
03:05PM 44.0330 -80.2848 213° Southwest 447 514 38,000  Level FlightAware ADS-B (CYYZ)
03:05PM 43.9491 -80.3591 213° Southwest 448 516 38,000  Level FlightAware ADS-B (CYYZ)
03:06PM 43.9142 -80.3900 213° Southwest 447 514 38,000  Level FlightAware ADS-B (CYKF)
03:06PM 43.8936 -80.4081 213° Southwest 449 517 38,000  Level FlightAware ADS-B (CYYZ)
03:06PM 43.8609 -80.4369 213° Southwest 450 518 38,000  Level FlightAware ADS-B (CYYZ)
03:07PM 43.8073 -80.4840 213° Southwest 451 519 38,000  Level FlightAware ADS-B (CYKF)
03:07PM 43.7878 -80.5011 213° Southwest 451 519 38,000  Level FlightAware ADS-B (CYYZ)
03:07PM 43.7595 -80.5259 213° Southwest 453 521 38,000  Level FlightAware ADS-B (CYYZ)
03:07PM 43.7409 -80.5423 213° Southwest 453 521 38,000  Level FlightAware ADS-B (MDST / STI)
03:08PM 43.6815 -80.5943 213° Southwest 457 526 38,000  Level FlightAware ADS-B (CYYZ)
03:08PM 43.6716 -80.6029 212° Southwest 457 526 38,000  Level FlightAware ADS-B (MDST / STI)
03:08PM 43.6518 -80.6202 213° Southwest 459 528 38,000  Level FlightAware ADS-B (CYYZ)
03:09PM 43.5898 -80.6741 212° Southwest 459 528 38,000  Level FlightAware ADS-B (CYKF)
03:09PM 43.5818 -80.6811 213° Southwest 461 531 38,000  Level FlightAware ADS-B (CYYZ)
03:09PM 43.5323 -80.7241 213° Southwest 461 531 38,000  Level FlightAware ADS-B (CYYZ)
03:10PM 43.5081 -80.7450 212° Southwest 460 529 38,000  Level FlightAware ADS-B (MDST / STI)
03:10PM 43.4700 -80.7781 213° Southwest 462 532 38,000  Level FlightAware ADS-B (CYYZ)
03:10PM 43.4151 -80.8254 213° Southwest 462 532 38,000  Level FlightAware ADS-B (CYYZ)
03:11PM 43.3746 -80.8605 212° Southwest 460 529 38,000  Level FlightAware ADS-B (CYKF)
03:11PM 43.3711 -80.8635 213° Southwest 459 528 38,000  Level FlightAware ADS-B (CYYZ)
03:11PM 43.3119 -80.9144 213° Southwest 458 527 38,000  Level FlightAware ADS-B (CYYZ)
03:12PM 43.3352 -80.8944 212° Southwest 458 527 38,000  Level FlightAware ADS-B (CYKF)
03:12PM 43.2532 -80.9648 213° Southwest 456 525 38,000  Level FlightAware ADS-B (CYYZ)
03:12PM 43.1990 -81.0113 213° Southwest 455 524 38,000  Level FlightAware ADS-B (CYYZ)
03:13PM 43.1585 -81.0461 212° Southwest 453 521 38,000  Level FlightAware ADS-B (CYKF)
03:13PM 43.1441 -81.0584 213° Southwest 454 522 38,000  Level FlightAware ADS-B (CYYZ)
03:13PM 43.0911 -81.1037 213° Southwest 454 522 38,000  Level FlightAware ADS-B (CYYZ)
03:14PM 43.0580 -81.1317 211° Southwest 456 525 38,000  Level FlightAware ADS-B (CYKF)
03:14PM 43.0370 -81.1474 208° Southwest 460 529 38,000  Level FlightAware ADS-B (CYYZ)
03:15PM 42.9508 -81.2009 206° Southwest 463 533 38,000  Level FlightAware ADS-B (CYYZ)
03:15PM 42.8914 -81.2390 206° Southwest 460 529 38,000  Level FlightAware ADS-B (CYYZ)
03:16PM 42.8359 -81.2738 205° Southwest 460 529 38,000  Level FlightAware ADS-B (CYYZ)
03:16PM 42.8288 -81.2782 205° Southwest 458 527 38,000  Level FlightAware ADS-B (CYKF)
03:16PM 42.7751 -81.3115 205° Southwest 457 526 38,000  Level FlightAware ADS-B (CYYZ)
03:17PM 42.7193 -81.3458 205° Southwest 453 521 38,000  Level FlightAware ADS-B (CYYZ)
03:17PM 42.7229 -81.3435 204° Southwest 452 520 38,000  Level FlightAware ADS-B (CYKF)
03:17PM 42.6612 -81.3812 205° Southwest 452 520 38,000  Level FlightAware ADS-B (CYYZ)
03:18PM 42.6046 -81.4158 205° Southwest 449 517 38,000  Level FlightAware ADS-B (CYYZ)
03:18PM 42.5474 -81.4507 205° Southwest 450 518 38,000  Level FlightAware ADS-B (CYYZ)
03:19PM 42.4913 -81.4847 205° Southwest 449 517 38,000  Level FlightAware ADS-B (CYYZ)
03:19PM 42.4353 -81.5189 205° Southwest 450 518 38,000  Level FlightAware ADS-B (CYYZ)
03:20PM 42.3784 -81.5536 205° Southwest 451 519 38,000  Level FlightAware ADS-B (CYYZ)
03:20PM 42.4050 -81.5374 204° Southwest 451 519 38,000  Level FlightAware ADS-B (CYKF)
03:20PM 42.3212 -81.5882 205° Southwest 452 520 38,000  Level FlightAware ADS-B (CYYZ)
03:21PM 42.2652 -81.6222 205° Southwest 451 519 38,000  Level FlightAware ADS-B (CYYZ)
03:21PM 42.2085 -81.6564 205° Southwest 452 520 38,000  Level FlightAware ADS-B (CYYZ)
03:22PM 42.1503 -81.6916 205° Southwest 453 521 38,000  Level FlightAware ADS-B (CYYZ)
03:22PM 42.0939 -81.7254 205° Southwest 457 526 38,000  Level FlightAware ADS-B (CYYZ)
03:23PM 42.0404 -81.7575 205° Southwest 459 528 38,000  Level FlightAware ADS-B (CYYZ)
03:23PM 41.9777 -81.7952 205° Southwest 459 528 38,000  Level FlightAware ADS-B (CYYZ)
03:24PM 41.9184 -81.8306 204° Southwest 456 525 38,000  Level FlightAware ADS-B (CYYZ)
03:24PM 41.8644 -81.8626 205° Southwest 454 522 38,000  Level FlightAware ADS-B (CYYZ)
03:25PM 41.8049 -81.8981 205° Southwest 452 520 38,000  Level FlightAware ADS-B (CYYZ)
03:25PM 41.7474 -81.9323 205° Southwest 449 517 38,000  Level FlightAware ADS-B (CYYZ)
03:26PM 41.6994 -81.9608 205° Southwest 448 516 38,000  Level FlightAware ADS-B (CYYZ)
03:27PM 41.5213 -82.0661 204° Southwest 445 512 38,000  Level FlightAware ADS-B (CYYZ)
03:28PM 41.4604 -82.1020 205° Southwest 446 513 38,000  Level FlightAware ADS-B (CYYZ)
03:28PM 41.3995 -82.1378 204° Southwest 449 517 38,000  Level FlightAware ADS-B (CYYZ)
03:29PM 41.2917 -82.1844 204° Southwest 451 519 38,000  Level Indianapolis Center
03:30PM 41.1669 -82.2294 195° South 461 531 38,000  Level Indianapolis Center
03:31PM 41.0428 -82.2747 195° South 461 531 38,000  Level Indianapolis Center
03:32PM 40.9183 -82.3197 195° South 461 531 38,000  Level Indianapolis Center
03:33PM 40.7944 -82.3633 195° South 461 531 38,000  Level Indianapolis Center
03:34PM 40.6703 -82.4072 195° South 461 531 38,000  Level Indianapolis Center
03:35PM 40.5469 -82.4500 195° South 459 528 38,000  Level Indianapolis Center
03:36PM 40.4019 -82.5019 195° South 458 527 38,000  Level Indianapolis Center
03:38PM 40.2769 -82.5439 194° South 459 528 38,000  Level Indianapolis Center
03:39PM 40.1631 -82.5819 194° South 459 528 38,000  Level Indianapolis Center
03:40PM 40.0308 -82.5950 184° South 470 541 38,000  Level Indianapolis Center
03:41PM 39.8728 -82.6064 183° South 471 542 38,000  Level Indianapolis Center
03:42PM 39.7414 -82.6161 183° South 471 542 38,000  Level Indianapolis Center
03:43PM 39.6089 -82.6253 183° South 471 542 38,000  Level Indianapolis Center
03:44PM 39.4775 -82.6342 183° South 472 543 38,000  Level Indianapolis Center
03:45PM 39.3458 -82.6433 183° South 472 543 38,000  Level Indianapolis Center
03:46PM 39.2147 -82.6514 183° South 472 543 38,000  Level Indianapolis Center
03:47PM 39.0817 -82.6603 183° South 472 543 38,000  Level Indianapolis Center
03:48PM 38.9261 -82.6714 183° South 471 542 38,000  Level Indianapolis Center
03:49PM 38.7958 -82.6797 183° South 471 542 38,000  Level Indianapolis Center
03:50PM 38.6653 -82.6875 183° South 471 542 38,000  Level Indianapolis Center
03:51PM 38.5325 -82.6964 183° South 471 542 38,000  Level Indianapolis Center
03:52PM 38.4003 -82.7056 183° South 471 542 38,000  Level Indianapolis Center
03:53PM 38.2464 -82.7139 182° South 472 543 38,000  Level Indianapolis Center
03:54PM 38.1144 -82.7244 184° South 472 543 38,000  Level Indianapolis Center
03:55PM 37.9831 -82.7317 182° South 472 543 38,000  Level Indianapolis Center
03:56PM 37.8522 -82.7414 183° South 472 543 38,000  Level Indianapolis Center
03:57PM 37.7211 -82.7536 184° South 472 543 38,000  Level Indianapolis Center
03:58PM 37.6033 -82.8011 198° South 448 516 38,000  Level Indianapolis Center
03:59PM 37.4783 -82.8833 208° Southwest 438 504 38,000  Level Indianapolis Center
04:00PM 37.3722 -82.9542 208° Southwest 436 502 38,000  Level Indianapolis Center
04:01PM 37.2653 -83.0233 207° Southwest 436 502 38,000  Level Indianapolis Center
04:02PM 37.1611 -83.0908 207° Southwest 431 496 38,000  Level Indianapolis Center
04:03PM 37.0428 -83.1694 208° Southwest 420 483 38,000  Level Indianapolis Center
04:04PM 36.9417 -83.2333 207° Southwest 414 476 38,000  Level Indianapolis Center
04:05PM 36.8397 -83.2986 207° Southwest 414 476 38,000  Level Indianapolis Center
04:06PM 36.7375 -83.3650 207° Southwest 414 476 38,000  Level Indianapolis Center
04:08PM 36.6169 -83.4422 207° Southwest 415 478 38,000  Level Indianapolis Center
04:09PM 36.5136 -83.5081 207° Southwest 415 478 38,000  Level Indianapolis Center
04:10PM 36.4056 -83.5761 207° Southwest 415 478 38,000  Level Indianapolis Center
04:11PM 36.3039 -83.6425 208° Southwest 415 478 38,000  Level Indianapolis Center
04:12PM 36.2006 -83.7078 207° Southwest 415 478 38,000  Level Indianapolis Center
04:13PM 36.0967 -83.7728 207° Southwest 415 478 38,000  Level Indianapolis Center
04:14PM 35.9642 -83.8592 208° Southwest 415 478 38,000  Level Atlanta Center
04:19PM 35.3377 -84.0323 191° South 441 507 38,000  Level FlightAware ADS-B (KDZJ)
04:20PM 35.2632 -84.0503 191° South 443 510 38,000  Level FlightAware ADS-B (KDZJ)
04:20PM 35.1755 -84.0713 191° South 445 512 38,000  Level FlightAware ADS-B (KDZJ)
04:21PM 35.1037 -84.0886 191° South 440 506 38,000  Level FlightAware ADS-B (KDZJ)
04:22PM 35.0009 -84.1132 191° South 442 509 38,000  Level FlightAware ADS-B (KDZJ)
04:23PM 34.9171 -84.1331 191° South 442 509 38,000  Level FlightAware ADS-B (KDZJ)
04:23PM 34.8376 -84.1520 191° South 442 509 38,000  Level FlightAware ADS-B (KDZJ)
04:24PM 34.7581 -84.1709 191° South 442 509 38,000  Level FlightAware ADS-B (KDZJ)
04:25PM 34.6462 -84.1974 191° South 442 509 38,000  Level FlightAware ADS-B (KDZJ)
04:26PM 34.5564 -84.2186 191° South 442 509 38,000  Level FlightAware ADS-B (KDZJ)
04:26PM 34.4685 -84.2394 191° South 442 509 38,000  Level FlightAware ADS-B (KDZJ)
04:27PM 34.3431 -84.2689 191° South 443 510 38,000  Level FlightAware ADS-B (KDZJ)
04:28PM 34.2590 -84.2885 191° South 444 511 38,000  Level FlightAware ADS-B (KDZJ)
04:29PM 34.1784 -84.3074 191° South 443 510 38,000  Level FlightAware ADS-B (KDZJ)
04:29PM 34.0953 -84.3269 191° South 443 510 38,000  Level FlightAware ADS-B (KDZJ)
04:30PM 34.0136 -84.3459 191° South 442 509 38,000  Level FlightAware ADS-B (KDZJ)
04:31PM 33.9318 -84.3650 191° South 442 509 38,000  Level FlightAware ADS-B (KDZJ)
04:32PM 33.7750 -84.4011 191° South 449 517 38,000 -120 Level Atlanta Center
04:33PM 33.6517 -84.4306 191° South 444 511 37,800 -360 Descending Atlanta Center
04:34PM 33.5347 -84.4350 182° South 465 535 37,300 -420 Descending Atlanta Center
04:35PM 33.3908 -84.4344 180° South 472 543 37,000 -180 Descending Atlanta Center
04:36PM 33.2592 -84.4314 179° South 472 543 37,000  Level Atlanta Center
04:37PM 33.1297 -84.4308 180° South 472 543 37,000  Level Atlanta Center
04:38PM 33.0006 -84.4303 180° South 467 537 37,000  Level Atlanta Center
04:39PM 32.8689 -84.4272 179° South 472 543 37,000  Level Atlanta Center
04:40PM 32.7542 -84.4167 176° South 472 543 37,000  Level Atlanta Center
04:41PM 32.6247 -84.4161 180° South 472 543 37,000  Level Atlanta Center
04:42PM 32.4933 -84.4131 179° South 472 543 37,000  Level Atlanta Center
04:43PM 32.3617 -84.4125 180° South 472 543 37,000  Level Atlanta Center
04:45PM 32.1053 -84.4058 179° South 470 541 37,000  Level Jacksonville Center
04:46PM 31.9758 -84.4014 178° South 470 541 37,000  Level Jacksonville Center
04:47PM 31.8422 -84.4014 180° South 470 541 37,000  Level Jacksonville Center
04:52PM 31.1204 -84.3849 179° South 476 548 37,000  Level FlightAware ADS-B (KTLH)
04:53PM 31.0014 -84.3826 179° South 475 547 37,000  Level FlightAware ADS-B (KTLH)
04:54PM 30.9024 -84.3807 179° South 475 547 37,000  Level FlightAware ADS-B (KTLH)
04:55PM 30.7934 -84.3785 179° South 474 545 37,000  Level FlightAware ADS-B (KTLH)
04:55PM 30.7301 -84.3771 178° South 475 547 37,000  Level FlightAware ADS-B (KTLH)
04:56PM 30.6593 -84.3699 172° South 485 558 37,000  Level FlightAware ADS-B (KTLH)
04:56PM 30.5930 -84.3558 167° South 494 568 37,000  Level FlightAware ADS-B (KTLH)
04:57PM 30.5242 -84.3336 163° South 501 577 37,000  Level FlightAware ADS-B (KTLH)
04:57PM 30.4230 -84.2849 154° Southeast 515 593 37,000  Level FlightAware ADS-B (KTLH)
04:58PM 30.3597 -84.2445 150° Southeast 520 598 37,000  Level FlightAware ADS-B (KTLH)
04:59PM 30.2748 -84.1893 151° Southeast 520 598 37,000  Level FlightAware ADS-B (KTLH)
04:59PM 30.2131 -84.1491 151° Southeast 518 596 37,000  Level FlightAware ADS-B (KTLH)
05:00PM 30.1466 -84.1058 151° Southeast 518 596 37,000  Level FlightAware ADS-B (KTLH)
05:00PM 30.0823 -84.0639 151° Southeast 517 595 37,000  Level FlightAware ADS-B (KTLH)
05:01PM 30.0067 -84.0148 151° Southeast 517 595 37,000  Level FlightAware ADS-B (KTLH)
05:01PM 29.9279 -83.9637 151° Southeast 517 595 37,000  Level FlightAware ADS-B (KTLH)
05:03PM 29.7639 -83.8592 151° Southeast 523 602 37,000  Level Jacksonville Center
05:04PM 29.6392 -83.7792 151° Southeast 523 602 37,000  Level Jacksonville Center
05:05PM 29.5144 -83.6992 151° Southeast 518 596 37,000  Level Jacksonville Center
05:06PM 29.3875 -83.6194 151° Southeast 524 603 37,000  Level Jacksonville Center
05:07PM 29.2628 -83.5378 150° Southeast 524 603 37,000  Level Jacksonville Center
05:08PM 29.1381 -83.4583 151° Southeast 524 603 37,000  Level Jacksonville Center
05:13PM 28.4199 -83.0032 151° Southeast 513 590 37,000  Level FlightAware ADS-B (KMCO)
05:15PM 28.2157 -82.8756 151° Southeast 512 589 37,000  Level FlightAware ADS-B (KMCO)
05:17PM 27.9967 -82.7394 151° Southeast 510 587 37,000  Level FlightAware ADS-B (KMCO)
05:19PM 27.7770 -82.5973 149° Southeast 509 586 37,000  Level FlightAware ADS-B (KMCO)
05:19PM 27.6967 -82.5433 149° Southeast 509 586 37,000  Level FlightAware ADS-B (KMCO)
05:20PM 27.6007 -82.4794 149° Southeast 508 585 37,000  Level FlightAware ADS-B (KMCO)
05:21PM 27.4647 -82.4065 171° South 479 551 37,000  Level FlightAware ADS-B (KMCO)
05:22PM 27.3903 -82.4050 182° South 465 535 37,000  Level FlightAware ADS-B (KMCO)
05:22PM 27.3131 -82.4077 182° South 470 541 37,000  Level FlightAware ADS-B (KMCO)
05:23PM 27.1943 -82.4117 182° South 471 542 37,000  Level FlightAware ADS-B (KMCO)
05:24PM 27.0740 -82.4158 182° South 471 542 37,000  Level FlightAware ADS-B (KMCO)
05:26PM 26.8749 -82.4228 182° South 466 536 37,000  Level FlightAware ADS-B (KMCO)
05:27PM 26.6483 -82.4306 182° South 464 534 37,000  Level FlightAware ADS-B (KMCO)
05:28PM 26.5706 -82.4333 182° South 464 534 37,000  Level FlightAware ADS-B (KMCO)
05:29PM 26.5009 -82.4357 182° South 465 535 37,000  Level FlightAware ADS-B (KMCO)
05:29PM 26.4131 -82.4387 182° South 465 535 37,000  Level FlightAware ADS-B (KMCO)
05:30PM 26.3257 -82.4416 182° South 465 535 37,000  Level FlightAware ADS-B (KMCO)
05:31PM 26.2175 -82.4452 182° South 465 535 37,000  Level FlightAware ADS-B (KMCO)
05:31PM 26.1540 -82.4474 182° South 466 536 37,000  Level FlightAware ADS-B (KMCO)
05:32PM 26.0859 -82.4498 182° South 465 535 37,000  Level FlightAware ADS-B (KMCO)
05:32PM 26.0069 -82.4525 182° South 464 534 37,000  Level FlightAware ADS-B (KMCO)
05:33PM 25.9367 -82.4548 182° South 464 534 37,000  Level FlightAware ADS-B (KMCO)
05:33PM 25.8839 -82.4565 182° South 463 533 37,000  Level FlightAware ADS-B (KMCO)
05:34PM 25.7695 -82.4603 182° South 463 533 37,000  Level FlightAware ADS-B (KMCO)
05:35PM 25.6347 -82.4648 182° South 464 534 37,000  Level FlightAware ADS-B (KMCO)
05:36PM 25.5695 -82.4670 182° South 465 535 37,000 -180 Level FlightAware ADS-B (KMCO)
05:37PM 25.4214 -82.4758 182° South 462 532 36,700 -600 Descending Miami Center
05:38PM 25.2919 -82.4792 181° South 462 532 35,800 -1,020 Descending Miami Center
05:39PM 25.1581 -82.4844 182° South 467 537 34,700 -1,260 Descending Miami Center
05:40PM 25.0264 -82.4897 182° South 472 543 33,300 -1,200 Descending Miami Center
05:41PM 24.8967 -82.4953 182° South 472 543 32,300 -1,020 Descending Miami Center
05:42PM 24.7775 -82.4967 181° South 477 549 31,300 -1,020 Descending Miami Center
05:43PM 24.6542 -82.5025 182° South 477 549 30,300 -1,020 Descending Miami Center
05:44PM 24.5308 -82.5061 182° South 457 526 29,300 -1,260 Descending Miami Center
05:45PM 24.4097 -82.5097 182° South 447 514 27,800 -1,620 Descending Miami Center
05:46PM 24.2906 -82.5133 182° South 437 503 26,100 -1,680 Descending Miami Center
05:47PM 24.1758 -82.5150 181° South 425 489 24,500 -1,620 Descending Miami Center
05:48PM 24.0647 -82.5214 183° South 415 478 22,900 -1,620 Descending Miami Center
05:50PM 23.8919 -82.5032 176° South  Level Estimated
05:57PM 23.0635 -82.4000 180° South  Level FlightAware Approximate
05:58PM 22.9891 -82.4091 180° South  Level Estimated
05:59PM 22.9891 -82.4091 180° South  Level Estimated
06:00PM 22.9891 -82.4091 180° South  Level Estimated
06:01PM 22.9891 -82.4091 180° South  Level Estimated
06:02PM 22.9891 -82.4091 180° South  Level Estimated
06:03PM 22.9891 -82.4091 180° South  Level Estimated
06:04PM 22.9891 -82.4091 180° South  Level Estimated
06:05PM 22.9891 -82.4091 180° South  Level Estimated
06:06PM 22.9891 -82.4091 180° South  Level Estimated
06:07PM 22.9891 -82.4091 180° South  Level Estimated
06:08PM 22.9891 -82.4091 180° South  Level Estimated
06:09PM 22.9891 -82.4091 180° South  Level Estimated
06:10PM 22.9891 -82.4091 180° South  Level Estimated
06:11PM 22.9891 -82.4091 180° South  Level Estimated
06:12PM 22.9891 -82.4091 180° South  Level Estimated
06:13PM 22.9891 -82.4091 180° South  Level Estimated
06:14PM 22.9891 -82.4091 180° South  Level Estimated
06:15PM 22.9891 -82.4091 180° South  Level Estimated
06:16PM 22.9891 -82.4091 180° South  Level Estimated
06:17PM 22.9891 -82.4091 180° South  Level Estimated
06:18PM 22.9891 -82.4091 180° South  Level Estimated
06:19PM 22.9891 -82.4091 180° South  Level Estimated
06:20PM 22.9891 -82.4091 180° South  Level Estimated